createdAt,value
2022-08-05T00:03:26.897Z,48.64
2022-08-05T00:08:34.681Z,47.78
2022-08-05T00:13:39.608Z,47.95
2022-08-05T00:18:40.100Z,47.77
2022-08-05T00:23:46.556Z,48.83
2022-08-05T00:28:53.034Z,49.26
2022-08-05T00:34:54.151Z,49.48
2022-08-05T00:39:13.887Z,49.59
2022-08-05T00:44:13.802Z,49.02
2022-08-05T00:49:13.981Z,49.11
2022-08-05T00:54:13.245Z,48.76
2022-08-05T00:59:11.355Z,49.03
2022-08-05T01:04:11.840Z,49.18
2022-08-05T01:09:12.592Z,49.90
2022-08-05T01:14:27.839Z,50.30
2022-08-05T01:19:56.650Z,50.67
2022-08-05T01:25:02.988Z,51.67
2022-08-05T01:30:12.482Z,51.82
2022-08-05T01:35:51.873Z,52.31
2022-08-05T01:40:40.910Z,53.16
2022-08-05T01:45:43.114Z,52.47
2022-08-05T01:50:43.484Z,53.14
2022-08-05T01:55:52.667Z,54.47
2022-08-05T02:00:53.376Z,54.60
2022-08-05T02:05:53.499Z,55.17
2022-08-05T02:11:03.489Z,55.31
2022-08-05T02:16:07.415Z,54.73
2022-08-05T02:21:17.546Z,54.78
2022-08-05T02:26:22.094Z,55.32
2022-08-05T02:31:28.311Z,56.16
2022-08-05T02:36:31.612Z,56.17
2022-08-05T02:41:36.382Z,55.96
2022-08-05T02:47:00.186Z,56.59
2022-08-05T02:52:03.710Z,57.48
2022-08-05T02:57:03.671Z,57.88
2022-08-05T03:02:05.983Z,57.62
2022-08-05T03:07:04.897Z,57.71
2022-08-05T03:12:05.526Z,57.33
2022-08-05T03:17:08.973Z,57.66
2022-08-05T03:22:16.760Z,57.82
2022-08-05T03:27:17.648Z,58.18
2022-08-05T03:32:19.518Z,59.25
2022-08-05T03:37:17.788Z,59.36
2022-08-05T03:42:16.102Z,59.32
2022-08-05T03:47:14.206Z,59.49
2022-08-05T03:52:37.258Z,59.71
2022-08-05T03:57:44.497Z,59.25
2022-08-05T04:02:57.845Z,58.79
2022-08-05T04:07:59.073Z,58.47
2022-08-05T04:12:59.027Z,57.99
2022-08-05T04:17:57.544Z,58.22
2022-08-05T04:22:59.612Z,58.72
2022-08-05T04:28:00.657Z,59.32
2022-08-05T04:33:02.110Z,58.94
2022-08-05T04:38:06.664Z,58.22
2022-08-05T04:43:05.629Z,57.31
2022-08-05T04:48:18.670Z,56.54
2022-08-05T04:53:27.789Z,55.79
2022-08-05T04:58:31.531Z,55.45
2022-08-05T05:03:29.635Z,55.28
2022-08-05T05:08:42.761Z,54.79
2022-08-05T05:13:41.035Z,53.75
2022-08-05T05:19:02.529Z,53.29
2022-08-05T05:24:08.947Z,52.56
2022-08-05T05:29:10.174Z,52.36
2022-08-05T05:34:13.014Z,52.28
2022-08-05T05:39:15.268Z,52.26
2022-08-05T05:44:36.381Z,52.40
2022-08-05T05:49:35.357Z,52.95
2022-08-05T05:54:49.670Z,52.18
2022-08-05T05:59:49.271Z,52.03
2022-08-05T06:04:49.301Z,52.44
2022-08-05T06:10:01.466Z,48.39
2022-08-05T06:15:05.493Z,47.93
2022-08-05T06:20:07.058Z,47.06
2022-08-05T06:25:59.207Z,45.74
2022-08-05T06:30:36.342Z,45.10
2022-08-05T06:36:07.208Z,43.06
2022-08-05T06:40:54.058Z,41.04
2022-08-05T06:46:04.112Z,40.77
2022-08-05T06:51:09.368Z,39.43
2022-08-05T06:56:16.270Z,38.89
2022-08-05T07:01:32.060Z,39.41
2022-08-05T07:06:31.944Z,38.21
2022-08-05T07:11:32.129Z,38.44
2022-08-05T07:17:58.749Z,35.50
2022-08-05T07:22:08.601Z,34.21
2022-08-05T07:27:08.920Z,32.74
2022-08-05T07:32:08.221Z,31.08
2022-08-05T07:37:06.340Z,30.92
2022-08-05T07:42:14.125Z,30.32
2022-08-05T07:47:14.864Z,29.93
2022-08-05T07:52:13.109Z,29.07
2022-08-05T07:57:17.553Z,27.98
2022-08-05T08:03:14.670Z,27.58
2022-08-05T08:08:00.006Z,27.39
2022-08-05T08:13:00.720Z,26.86
2022-08-05T08:18:01.987Z,26.87
2022-08-05T08:23:03.336Z,26.54
2022-08-05T08:28:03.075Z,24.61
2022-08-05T08:33:04.650Z,24.05
2022-08-05T08:38:06.835Z,24.23
2022-08-05T08:44:54.620Z,23.69
2022-08-05T08:49:03.384Z,23.31
2022-08-05T08:53:46.878Z,22.65
2022-08-05T08:58:48.027Z,22.13
2022-08-05T09:03:55.312Z,23.04
2022-08-05T09:08:53.894Z,22.85
2022-08-05T09:14:09.264Z,22.81
2022-08-05T09:19:14.712Z,22.66
2022-08-05T09:24:13.441Z,21.59
2022-08-05T09:29:18.914Z,22.09
2022-08-05T09:34:17.382Z,21.39
2022-08-05T09:39:16.604Z,20.67
2022-08-05T09:44:34.507Z,22.13
2022-08-05T09:49:54.560Z,20.41
2022-08-05T09:54:58.674Z,20.28
2022-08-05T10:00:04.770Z,20.45
2022-08-05T10:05:15.617Z,20.31
2022-08-05T10:10:17.772Z,20.69
2022-08-05T10:15:26.149Z,21.01
2022-08-05T10:20:25.062Z,20.72
2022-08-05T10:25:23.446Z,21.39
2022-08-05T10:32:46.881Z,19.85
2022-08-05T10:35:44.336Z,20.28
2022-08-05T10:40:59.875Z,19.18
2022-08-05T10:46:06.554Z,20.29
2022-08-05T10:51:22.520Z,20.38
2022-08-05T10:56:25.971Z,19.00
2022-08-05T11:01:55.644Z,18.57
2022-08-05T11:07:08.236Z,18.35
2022-08-05T11:12:07.029Z,18.44
2022-08-05T11:17:58.985Z,17.50
2022-08-05T11:23:02.200Z,19.21
2022-08-05T11:28:40.376Z,18.55
2022-08-05T11:33:54.009Z,18.42
2022-08-05T11:38:54.814Z,19.91
2022-08-05T11:44:06.692Z,19.17
2022-08-05T11:49:10.171Z,18.20
2022-08-05T11:54:08.372Z,17.58
2022-08-05T11:59:16.025Z,17.43
2022-08-05T12:04:20.907Z,18.79
2022-08-05T12:09:38.680Z,19.65
2022-08-05T12:14:47.228Z,20.84
2022-08-05T12:20:16.991Z,21.04
2022-08-05T12:25:08.334Z,20.25
2022-08-05T12:30:15.485Z,19.64
2022-08-05T12:35:16.889Z,19.10
2022-08-05T12:40:26.827Z,19.45
2022-08-05T12:45:42.542Z,19.83
2022-08-05T12:52:11.174Z,19.69
2022-08-05T12:56:35.008Z,20.30
2022-08-05T13:02:02.216Z,21.19
2022-08-05T13:06:59.189Z,21.74
2022-08-05T13:12:05.087Z,22.29
2022-08-05T13:17:10.865Z,22.62
2022-08-05T13:22:12.215Z,23.21
2022-08-05T13:27:10.948Z,23.60
2022-08-05T13:32:09.605Z,24.19
2022-08-05T13:37:08.353Z,23.98
2022-08-05T13:42:14.773Z,23.80
2022-08-05T13:47:34.568Z,24.58
2022-08-05T13:52:31.785Z,25.61
2022-08-05T13:57:51.375Z,22.45
2022-08-05T14:02:50.233Z,21.71
2022-08-05T14:07:59.845Z,22.05
2022-08-05T14:13:07.794Z,22.87
2022-08-05T14:18:14.979Z,24.07
2022-08-05T14:23:23.422Z,23.66
2022-08-05T14:28:27.006Z,22.87
2022-08-05T14:33:25.576Z,23.08
2022-08-05T14:38:31.935Z,22.81
2022-08-05T14:44:00.073Z,22.54
2022-08-05T14:48:50.459Z,23.24
2022-08-05T14:54:26.525Z,22.32
2022-08-05T14:59:10.478Z,23.55
2022-08-05T15:04:11.444Z,24.00
2022-08-05T15:09:09.923Z,22.68
2022-08-05T15:14:10.044Z,23.29
2022-08-05T15:19:08.186Z,22.95
2022-08-05T15:24:21.504Z,23.37
2022-08-05T15:29:21.811Z,23.58
2022-08-05T15:34:32.086Z,22.97
2022-08-05T15:40:59.539Z,23.50
2022-08-05T15:44:51.529Z,24.01
2022-08-05T15:49:56.770Z,24.53
2022-08-05T15:54:56.962Z,24.45
2022-08-05T15:59:57.722Z,25.03
2022-08-05T16:04:56.045Z,25.03
2022-08-05T16:09:54.350Z,25.34
2022-08-05T16:14:52.421Z,25.60
2022-08-05T16:20:05.217Z,25.62
2022-08-05T16:25:10.249Z,25.83
2022-08-05T16:30:23.092Z,25.65
2022-08-05T16:35:28.365Z,25.95
2022-08-05T16:40:30.471Z,26.24
2022-08-05T16:46:03.549Z,26.26
2022-08-05T16:50:48.191Z,25.86
2022-08-05T16:55:47.521Z,26.65
2022-08-05T17:00:46.909Z,26.99
2022-08-05T17:05:53.214Z,27.15
2022-08-05T17:10:52.494Z,27.34
2022-08-05T17:15:55.556Z,27.28
2022-08-05T17:21:07.545Z,27.71
2022-08-05T17:26:05.699Z,28.02
2022-08-05T17:31:08.151Z,28.15
2022-08-05T17:36:33.959Z,28.72
2022-08-05T17:42:17.691Z,28.93
2022-08-05T17:46:44.836Z,29.30
2022-08-05T17:51:46.133Z,29.54
2022-08-05T17:56:48.952Z,29.74
2022-08-05T18:01:50.537Z,30.05
2022-08-05T18:06:50.233Z,30.23
2022-08-05T18:11:52.378Z,30.72
2022-08-05T18:16:52.093Z,31.11
2022-08-05T18:22:09.702Z,31.41
2022-08-05T18:27:18.607Z,31.81
2022-08-05T18:32:17.311Z,32.11
2022-08-05T18:37:34.019Z,32.11
2022-08-05T18:42:33.152Z,32.19
2022-08-05T18:47:31.430Z,32.70
2022-08-05T18:52:35.597Z,32.93
2022-08-05T18:57:50.100Z,32.78
2022-08-05T19:02:51.791Z,33.40
2022-08-05T19:07:52.603Z,33.72
2022-08-05T19:12:51.126Z,34.15
2022-08-05T19:17:59.788Z,34.39
2022-08-05T19:23:22.574Z,34.45
2022-08-05T19:28:27.061Z,34.92
2022-08-05T19:33:35.491Z,34.86
2022-08-05T19:38:36.596Z,34.81
2022-08-05T19:44:05.375Z,35.02
2022-08-05T19:48:52.998Z,35.17
2022-08-05T19:54:04.634Z,35.36
2022-08-05T19:59:51.202Z,35.36
2022-08-05T20:04:22.571Z,35.27
2022-08-05T20:09:23.341Z,35.01
2022-08-05T20:14:27.001Z,35.29
2022-08-05T20:19:25.479Z,35.57
2022-08-05T20:24:35.922Z,35.63
2022-08-05T20:29:34.109Z,35.80
2022-08-05T20:34:33.535Z,35.98
2022-08-05T20:39:36.544Z,36.13
2022-08-05T20:44:37.948Z,35.97
2022-08-05T20:49:39.672Z,36.28
2022-08-05T20:54:43.573Z,36.00
2022-08-05T21:00:20.723Z,36.34
2022-08-05T21:05:16.196Z,36.68
2022-08-05T21:10:14.420Z,36.67
2022-08-05T21:15:14.020Z,36.88
2022-08-05T21:20:13.326Z,36.90
2022-08-05T21:25:33.475Z,36.90
2022-08-05T21:30:33.116Z,37.13
2022-08-05T21:35:55.956Z,36.88
2022-08-05T21:40:49.498Z,37.07
2022-08-05T21:45:56.533Z,37.42
2022-08-05T21:50:55.833Z,37.35
2022-08-05T21:56:04.371Z,38.70
2022-08-05T22:01:06.357Z,44.19
2022-08-05T22:06:08.876Z,46.95
2022-08-05T22:11:08.585Z,48.50
2022-08-05T22:16:32.172Z,46.76
2022-08-05T22:21:28.215Z,49.95
2022-08-05T22:26:49.702Z,49.34
2022-08-05T22:31:55.201Z,46.09
2022-08-05T22:36:59.514Z,44.73
2022-08-05T22:42:09.740Z,45.03
2022-08-05T22:47:12.472Z,45.02
2022-08-05T22:52:32.271Z,44.71
2022-08-05T22:57:34.206Z,45.09
2022-08-05T23:02:40.078Z,45.42
2022-08-05T23:07:48.472Z,45.13
2022-08-05T23:12:51.149Z,45.03
2022-08-05T23:18:00.485Z,45.61
2022-08-05T23:23:05.709Z,46.28
2022-08-05T23:28:07.860Z,46.84
2022-08-05T23:33:07.468Z,48.89
2022-08-05T23:38:20.806Z,47.92
2022-08-05T23:43:24.508Z,47.06
2022-08-05T23:48:36.647Z,46.90
2022-08-05T23:53:46.402Z,46.79
2022-08-05T23:58:45.158Z,48.38
